Terminal Aerodrome Forecast
Issued by NWS Dodge City, KS

Home | Current Version | Previous Version | Graphics & Text | Print | Product List | Glossary Off
Versions: 1 2 3 4 5 6 7 8 9 10 11 12 13 14 15 16 17 18 19 20 21 22 23 24

000
FTUS43 KDDC 220908 AAB
TAFDDC
TAF AMD
KDDC 220908Z 2209/2306 28009KT P6SM OVC090
     FM221000 31013G20KT P6SM SCT100
     FM221600 32022G29KT P6SM BKN070
     FM230000 31010KT P6SM SCT100=

USA.gov is the U.S. government's official web portal to all federal, state and local government web resources and services.